sensor_id;sensor_type;location;lat;lon;timestamp;temperature;humidity
9875;DHT22;4976;46.786;7.632;2023-04-25T17:45:24;10.30;99.90
9875;DHT22;4976;46.786;7.632;2023-04-25T17:47:53;10.20;99.90
9875;DHT22;4976;46.786;7.632;2023-04-25T17:50:20;10.00;1.00
9875;DHT22;4976;46.786;7.632;2023-04-25T17:52:47;9.70;99.90
9875;DHT22;4976;46.786;7.632;2023-04-25T17:55:14;9.70;1.00
9875;DHT22;4976;46.786;7.632;2023-04-25T17:57:41;9.60;1.00
9875;DHT22;4976;46.786;7.632;2023-04-25T18:00:09;9.40;25.50
9875;DHT22;4976;46.786;7.632;2023-04-25T18:02:38;9.20;99.90
9875;DHT22;4976;46.786;7.632;2023-04-25T18:05:06;8.80;91.60
9875;DHT22;4976;46.786;7.632;2023-04-25T18:07:35;8.70;99.90
9875;DHT22;4976;46.786;7.632;2023-04-25T18:10:02;8.90;1.00
9875;DHT22;4976;46.786;7.632;2023-04-25T18:12:31;8.80;99.90
9875;DHT22;4976;46.786;7.632;2023-04-25T18:14:58;8.60;99.90
9875;DHT22;4976;46.786;7.632;2023-04-25T18:17:26;8.70;99.90
9875;DHT22;4976;46.786;7.632;2023-04-25T18:19:54;8.80;99.90
9875;DHT22;4976;46.786;7.632;2023-04-25T18:22:21;8.80;99.90
9875;DHT22;4976;46.786;7.632;2023-04-25T18:24:49;8.70;1.00
9875;DHT22;4976;46.786;7.632;2023-04-25T18:27:16;8.80;99.90
9875;DHT22;4976;46.786;7.632;2023-04-25T18:29:44;8.60;99.90
9875;DHT22;4976;46.786;7.632;2023-04-25T18:32:12;8.40;1.00
9875;DHT22;4976;46.786;7.632;2023-04-25T18:34:41;8.30;1.00
9875;DHT22;4976;46.786;7.632;2023-04-25T18:37:12;8.30;1.00
9875;DHT22;4976;46.786;7.632;2023-04-25T18:39:38;8.30;1.00
9875;DHT22;4976;46.786;7.632;2023-04-25T18:42:06;8.30;1.00
9875;DHT22;4976;46.786;7.632;2023-04-25T18:44:33;8.30;1.00
9875;DHT22;4976;46.786;7.632;2023-04-25T18:47:04;8.30;1.00
9875;DHT22;4976;46.786;7.632;2023-04-25T18:49:31;8.30;1.00
9875;DHT22;4976;46.786;7.632;2023-04-25T18:51:58;8.20;1.00
9875;DHT22;4976;46.786;7.632;2023-04-25T18:54:31;8.20;1.00
9875;DHT22;4976;46.786;7.632;2023-04-25T18:57:01;8.20;1.00
9875;DHT22;4976;46.786;7.632;2023-04-25T18:59:28;8.20;1.00
9875;DHT22;4976;46.786;7.632;2023-04-25T19:01:55;8.20;1.00
9875;DHT22;4976;46.786;7.632;2023-04-25T19:04:24;8.30;1.00
9875;DHT22;4976;46.786;7.632;2023-04-25T19:06:53;8.40;1.00
9875;DHT22;4976;46.786;7.632;2023-04-25T19:09:20;8.30;1.00
9875;DHT22;4976;46.786;7.632;2023-04-25T19:11:52;8.30;1.00
9875;DHT22;4976;46.786;7.632;2023-04-25T19:14:19;8.20;1.00
9875;DHT22;4976;46.786;7.632;2023-04-25T19:16:46;8.10;1.00
9875;DHT22;4976;46.786;7.632;2023-04-25T19:19:15;8.10;1.00
9875;DHT22;4976;46.786;7.632;2023-04-25T19:21:42;8.00;1.00
9875;DHT22;4976;46.786;7.632;2023-04-25T19:24:10;8.00;1.00
9875;DHT22;4976;46.786;7.632;2023-04-25T19:26:38;8.00;1.00
9875;DHT22;4976;46.786;7.632;2023-04-25T19:29:07;7.90;1.00
9875;DHT22;4976;46.786;7.632;2023-04-25T19:31:35;7.80;1.00
9875;DHT22;4976;46.786;7.632;2023-04-25T19:34:03;7.60;1.00
9875;DHT22;4976;46.786;7.632;2023-04-25T19:36:30;7.50;1.00
9875;DHT22;4976;46.786;7.632;2023-04-25T19:39:00;7.40;1.00
9875;DHT22;4976;46.786;7.632;2023-04-25T19:41:44;7.30;1.00
9875;DHT22;4976;46.786;7.632;2023-04-25T19:44:13;7.10;1.00
9875;DHT22;4976;46.786;7.632;2023-04-25T19:46:42;7.10;1.00
9875;DHT22;4976;46.786;7.632;2023-04-25T19:49:13;6.80;1.00
9875;DHT22;4976;46.786;7.632;2023-04-25T19:51:41;6.60;47.30
9875;DHT22;4976;46.786;7.632;2023-04-25T19:54:10;6.30;99.90
9875;DHT22;4976;46.786;7.632;2023-04-25T19:56:42;6.30;99.90
9875;DHT22;4976;46.786;7.632;2023-04-25T19:59:17;6.40;99.90
9875;DHT22;4976;46.786;7.632;2023-04-25T20:01:46;6.40;91.00
9875;DHT22;4976;46.786;7.632;2023-04-25T20:04:13;6.40;61.10
9875;DHT22;4976;46.786;7.632;2023-04-25T20:06:40;6.50;27.70
9875;DHT22;4976;46.786;7.632;2023-04-25T20:09:07;6.70;1.00
9875;DHT22;4976;46.786;7.632;2023-04-25T20:11:34;6.90;1.00
9875;DHT22;4976;46.786;7.632;2023-04-25T20:14:01;6.90;1.00
9875;DHT22;4976;46.786;7.632;2023-04-25T20:16:30;6.80;1.00
9875;DHT22;4976;46.786;7.632;2023-04-25T20:18:58;6.70;1.00
9875;DHT22;4976;46.786;7.632;2023-04-25T20:21:26;6.50;27.00
9875;DHT22;4976;46.786;7.632;2023-04-25T20:23:57;6.30;71.00
9875;DHT22;4976;46.786;7.632;2023-04-25T20:26:25;6.40;58.70
9875;DHT22;4976;46.786;7.632;2023-04-25T20:28:52;6.30;58.40
9875;DHT22;4976;46.786;7.632;2023-04-25T20:31:23;6.30;81.30
9875;DHT22;4976;46.786;7.632;2023-04-25T20:33:52;6.30;85.10
9875;DHT22;4976;46.786;7.632;2023-04-25T20:36:19;6.30;88.80
9875;DHT22;4976;46.786;7.632;2023-04-25T20:38:46;6.20;90.30
9875;DHT22;4976;46.786;7.632;2023-04-25T20:41:13;6.20;92.30
9875;DHT22;4976;46.786;7.632;2023-04-25T20:43:40;6.20;93.40
9875;DHT22;4976;46.786;7.632;2023-04-25T20:46:07;6.10;96.20
9875;DHT22;4976;46.786;7.632;2023-04-25T20:48:36;6.10;98.70
9875;DHT22;4976;46.786;7.632;2023-04-25T20:51:05;6.00;99.20
9875;DHT22;4976;46.786;7.632;2023-04-25T20:53:33;6.10;99.90
9875;DHT22;4976;46.786;7.632;2023-04-25T20:56:00;6.10;99.90
9875;DHT22;4976;46.786;7.632;2023-04-25T20:58:28;6.20;99.90
9875;DHT22;4976;46.786;7.632;2023-04-25T21:00:56;6.10;99.90
9875;DHT22;4976;46.786;7.632;2023-04-25T21:03:23;6.20;95.70
9875;DHT22;4976;46.786;7.632;2023-04-25T21:05:50;6.00;92.20
9875;DHT22;4976;46.786;7.632;2023-04-25T21:08:18;5.80;99.60
9875;DHT22;4976;46.786;7.632;2023-04-25T21:10:45;5.70;99.90
9875;DHT22;4976;46.786;7.632;2023-04-25T21:13:12;5.80;99.90
9875;DHT22;4976;46.786;7.632;2023-04-25T21:15:39;5.80;99.90
9875;DHT22;4976;46.786;7.632;2023-04-25T21:18:06;5.70;99.90
9875;DHT22;4976;46.786;7.632;2023-04-25T21:20:33;5.70;97.90
9875;DHT22;4976;46.786;7.632;2023-04-25T21:23:02;5.70;97.80
9875;DHT22;4976;46.786;7.632;2023-04-25T21:25:31;5.60;93.20
9875;DHT22;4976;46.786;7.632;2023-04-25T21:27:58;5.40;93.70
9875;DHT22;4976;46.786;7.632;2023-04-25T21:30:26;5.40;99.00
9875;DHT22;4976;46.786;7.632;2023-04-25T21:32:54;5.40;99.90
9875;DHT22;4976;46.786;7.632;2023-04-25T21:35:21;5.40;99.90
9875;DHT22;4976;46.786;7.632;2023-04-25T21:37:48;5.40;99.90
9875;DHT22;4976;46.786;7.632;2023-04-25T21:40:15;5.30;99.90
9875;DHT22;4976;46.786;7.632;2023-04-25T21:42:44;5.40;99.90
9875;DHT22;4976;46.786;7.632;2023-04-25T21:45:14;5.30;99.90
9875;DHT22;4976;46.786;7.632;2023-04-25T21:47:41;5.20;99.90
9875;DHT22;4976;46.786;7.632;2023-04-25T21:50:10;5.20;99.90
9875;DHT22;4976;46.786;7.632;2023-04-25T21:52:37;5.20;99.90
9875;DHT22;4976;46.786;7.632;2023-04-25T21:55:04;5.30;99.90
9875;DHT22;4976;46.786;7.632;2023-04-25T21:57:31;5.40;99.90
9875;DHT22;4976;46.786;7.632;2023-04-25T22:00:00;5.40;95.70
